KFBG/FBG METAR and TAF weather

Enter ICAO airport designator
Station Type Date Time Source
KFBG METAR 2019/04/24 20:56 UTC NOAA

KFBG 242056Z AUTO 21006KT 10SM CLR 31/10 A2984 RMK AO2 SLP105 T03090102 57023 $


Station Type Date Time Source
KFBG Decoded METAR 2019/04/24 20:56 UTC NOAA

Fort Bragg / Simmons Army Airfield, NC, United States (KFBG) 35-08N 078-56W 74M
Apr 24, 2019 - 04:56 PM EDT / 2019.04.24 2056 UTC
Wind: from the SSW (210 degrees) at 7 MPH (6 KT):0
Visibility: 10 mile(s):0
Sky conditions: clear
Temperature: 87.6 F (30.9 C)
Dew Point: 50.4 F (10.2 C)
Relative Humidity: 27%
Pressure (altimeter): 29.84 in. Hg (1010 hPa)
Pressure tendency: 0.07 inches (2.3 hPa) lower than three hours ago
ob: KFBG 242056Z AUTO 21006KT 10SM CLR 31/10 A2984 RMK AO2 SLP105 T03090102 57023
cycle: 21

Station Type Date Time Source
KFBG TAF 2019/04/24 17:27 UTC NOAA

TAF TAF KFBG 241700Z 2417/2523 28009KT 9999 BKN120 QNH2990INS
BECMG 2419/2420 24009KT 9999 FEW150 QNH2988INS
BECMG 2518/2519 23012G18KT 9999 BKN120 OVC180 QNH2987INS TX31/2420Z TN15/2511Z

Example: see airport list